Orlando International Airport
KMCO : rendu visible

Aérodrome :











RETROUVEZ-NOUS SUR...

 
LOGIN :

S'inscrire | Disclaimer

   EN    FR    IT 

 









Légende :    VFR   VFR Marginal   IFR   IFR Intensif   IFR Très Intensif
Visi : 
Plafond : 
>= 8 km
>= 3000ft
5 à 8 km
1000 à 3000 ft
1500m à 5 km
500 à 1000 ft
800 à 1500m
200 à 500 ft
< 800m
< 200 ft
Symboles :   Orages  Brouillard  Fortes neiges  Fortes précipitations  Vent > 20 kt






- Altitude de l'aérodrome : 96 ft
- Code IATA : MCO


KMCO - Orlando International

DERNIER METAR :
  • 191653Z 17010KT 10SM FEW026 SCT065 SCT095 BKN200 25/23 A2984 RMK AO2 RAE28 SLP102 P0001 T02500228

METARs EXPIRÉS :
  • 191553Z 15012KT 10SM -RA SCT014 SCT055 OVC090 24/22 A2987 RMK AO2 SLP113 P0025 T02390217
  • 191536Z 18011G20KT 10SM -RA SCT011 BKN055 OVC090 24/22 A2989 RMK AO2 P0025 T02440222 $
  • 191525Z 17015G24KT 3SM R35L/1800VP6000FT -RA BR FEW009 BKN015 OVC055 24/22 A2989 RMK AO2 P0024 T02390222 $
  • 191515Z 19016G21KT 1 1/4SM R35L/1400VP6000FT +RA BR BKN009 BKN022 OVC035 25/23 A2990 RMK AO2 P0011 T02500233
  • 191453Z 19006KT 1 1/2SM R35L/4000VP6000FT +RA BR SCT008 BKN022 OVC070 25/24 A2989 RMK AO2 SLP118 P0022 60171 T02500239 50011
  • 191440Z 15010KT 2 1/2SM R35L/5500VP6000FT +RA BR SCT006 BKN043 OVC070 25/23 A2988 RMK AO2 P0010 T02500233
  • 191402Z 14006KT 3SM RA BR BKN009 BKN020 OVC031 24/23 A2988 RMK AO2 P0003 T02440228

TAF KMCO
Valide du 19 à 15h jusqu'au 20 à 18h UTC


191505Z 1915/2018 18008KT 6SM RA SCT008 BKN025 OVC070
TEMPO 1915/1916 19012G24KT 2SM +RA BKN008
FM191700 16013KT P6SM VCSH SCT025 BKN080 OVC150
FM191900 19014G19KT P6SM SCT030 BKN100
FM200000 21010KT P6SM SCT040 BKN100
FM200300 22007KT P6SM SCT035 BKN200
FM201300 22007KT P6SM SCT250



MET'MAP, la Météo Aéronautique d'un coup d'oeil ! - Copyright ORBIFLY Décembre 2007 - Disclaimer

ORBIFLY MET'MAP TEAM :

Programmation & Développement : Alexandra Zaïnal
Conception & Développement : Baudouin d'Aumeries
Co-Programmation & Développement : Marc-Olivier Méhu
Soutien technique & logistique : Manuel Goepfert

Contact : metmap@orbifly.com




SOURCES & CREDITS :

   NOAA       Earth
Advisory